Ana Sayfa
METAR-TAF:

METAR-TAF

Havaalanları :

College Park, Maryland, Amerika Birleşik Devletleri

Enlem: 38-58-50N, Boylam: 076-55-20W, yükseklik: 15 m

Güncel hava durumu gözlemi

Rapor saat 19:03 UTC de 16 dakika önce yapıldı.
Rüzgar batıdan 7 kt, güney/güneybatı ve kuzeybatı arasında değişken
Sıcaklık 36°C
Nem 39%
Basınç 1011 hPa
Görüş mesafesi: 16.1 km
Açık gökyüzü

METAR: KCGS 211903Z AUTO 27007KT 200V310 10SM CLR 36/20 A2986 RMK AO1 T03570200

Saat: 15:19 (19:19 UTC)


TAF: eksik

4.000'den fazla havaalanı için hava durumu gözlemleri ve tahminleri (METAR ve TAF raporları).

Kullanılabilir istasyonlar harita üzerinde sarı ve kırmızı noktalarla gösterilir.

İstasyonun adını görmek için fareyi noktanın üzerinde gezdirin.

Sonrasında hava gözlem ve tahminlerini görmek için tıklayın.

Haritayı değiştirmek için: yaklaştırmak için siyah artı işaretli yeşil düğmeye ve uzaklaştırmak için de eksi işaretli düğmeye hızla tıklayın; bitişik haritalar için yeşil okları kullanın.


METAR-TAF: